HTZA

Abeid Amani Karume International Airport

Zanzibar, Tanzania
METAR HTZA 160500Z 06005KT 9999 SCT016 FEW018CB 26/25 Q1015 NOSIG
Observed Flight Rules
Dec-16 @ 05:00 UTC (53 minutes ago) Visual Flight Rules
Wind Visibility Clouds
60° at 5 knots 10,000+ meters
  • Scattered at 1,600' AGL
  • Few at 1,800' AGL
Temperatures Readings
Current 26°C / 79°F
Dewpoint 25°C / 77°F
Humidity 94%
Altimeter 29.97" Hg
Pressure 1015 hPa
Elevation 15
METAR HTZA 160500Z 06005KT 9999 SCT016 FEW018CB 26/25 Q1015 NOSIG
Observed Flight Rules
Dec-16 @ 05:00 UTC
(53 minutes ago)
VFR
Wind Visibility
60° at 5 knots 10,000+ meters
Clouds
  • Scattered at 1,600' AGL
  • Few at 1,800' AGL
Temperature Dewpoint
26°C / 79°F 25°C / 77°F
Humidity Altimeter Pressure
94% 29.97" Hg 1015 hPa